Flight Track Log - Related Links

Times and Time Zones

All times are in EDT time to prevent confusion due to time zone crossing. See the AAL1482 flight status page for this flight to view local times or setup timezone preferences in your user account.

Time Position Orientation Groundspeed Altitude Reporting Facility
EDT Latitude Longitude Course Direction KTS MPH feet Rate Location/Type
Mon 08:49:11 PM 36.1028 -115.1514 90° East 156 180 3,200  Level Los Angeles Center
Mon 08:49:48 PM 36.1286 -115.1322 31° Northeast 186 214 4,300 2,327 Climbing Los Angeles Center
Mon 08:50:49 PM 36.1400 -115.0511 80° East 272 313 7,000 2,976 Climbing Los Angeles Center
Mon 08:51:00 PM 35.8984 -115.2707 161° South  Level FlightAware Approximate
Mon 08:51:51 PM 36.1456 -114.9556 86° East 280 322 10,400  Level Los Angeles Center
Mon 08:52:00 PM 35.8351 -115.1678 103° East  Level FlightAware Approximate
Mon 08:52:50 PM 36.1314 -114.8383 98° East 348 400 13,100  Level Los Angeles Center
Mon 08:53:00 PM 35.8206 -115.0232 84° East  Level FlightAware Approximate
Mon 08:53:54 PM 36.1061 -114.7269 106° East 356 410 16,000  Level Los Angeles Center
Mon 08:54:00 PM 35.8333 -114.8767 90° East  Level FlightAware Approximate
Mon 08:54:56 PM 36.0739 -114.5797 105° East 366 421 19,800  Level Los Angeles Center
Mon 08:55:57 PM 36.0461 -114.4542 105° East 374 430 22,400 2,390 Climbing Los Angeles Center
Mon 08:56:59 PM 36.0178 -114.3250 105° East 385 443 24,700 2,146 Climbing Los Angeles Center
Mon 08:58:00 PM 35.9886 -114.1922 105° East 397 457 26,800 1,122 Climbing Los Angeles Center
Mon 08:59:02 PM 35.9589 -114.0611 106° East 398 458 27,000 98 Climbing Los Angeles Center
Mon 09:00:03 PM 35.9300 -113.9297 105° East 397 457 27,000  Level Los Angeles Center
Mon 09:01:05 PM 35.9053 -113.7942 103° East 404 465 27,000  Level Los Angeles Center
Mon 09:02:06 PM 35.8850 -113.6586 100° East 404 465 27,000  Level Los Angeles Center
Mon 09:03:08 PM 35.8597 -113.5006 101° East 406 467 27,000  Level Los Angeles Center
Mon 09:04:10 PM 35.8383 -113.3633 101° East 408 470 27,000  Level Los Angeles Center
Mon 09:05:11 PM 35.8158 -113.2264 101° East 408 470 27,000  Level Los Angeles Center
Mon 09:06:13 PM 35.7936 -113.0894 101° East 406 467 27,000  Level Los Angeles Center
Mon 09:07:14 PM 35.7717 -112.9514 101° East 409 471 27,000  Level Los Angeles Center
Mon 09:08:16 PM 35.7478 -112.8072 101° East 413 475 27,000  Level Los Angeles Center
Mon 09:09:17 PM 35.7256 -112.6714 101° East 414 476 27,000  Level Los Angeles Center
Mon 09:10:19 PM 35.7022 -112.5289 101° East 418 481 27,000  Level Los Angeles Center
Mon 09:11:20 PM 35.6781 -112.3861 102° East 422 486 27,000  Level Los Angeles Center
Mon 09:12:22 PM 35.6467 -112.2119 102° East 431 496 27,000  Level Los Angeles Center
Mon 09:13:24 PM 35.6231 -112.0664 101° East 434 499 27,000  Level Los Angeles Center
Mon 09:14:25 PM 35.5975 -111.9214 102° East 435 501 27,000  Level Los Angeles Center
Mon 09:15:27 PM 35.5894 -111.7686 94° East 448 516 27,000  Level Los Angeles Center
Mon 09:16:28 PM 35.5836 -111.6153 93° East 452 520 27,000  Level Los Angeles Center
Mon 09:17:30 PM 35.5800 -111.4614 92° East 452 520 27,000  Level Los Angeles Center
Mon 09:18:31 PM 35.5744 -111.3083 93° East 452 520 27,000  Level Los Angeles Center
Mon 09:19:42 PM 35.5675 -111.1092 92° East 442 509 27,000 135 Level Albuquerque Center
Mon 09:20:44 PM 35.5636 -110.9683 92° East 435 501 27,300 488 Climbing Albuquerque Center
Mon 09:21:45 PM 35.5569 -110.8011 93° East 436 502 28,000 341 Climbing Albuquerque Center
Mon 09:22:47 PM 35.5428 -110.6556 97° East 444 511 28,000  Level Albuquerque Center
Mon 09:23:48 PM 35.5253 -110.4903 97° East 441 507 28,000 780 Level Albuquerque Center
Mon 09:24:50 PM 35.5133 -110.3500 96° East 436 502 29,600 1,415 Climbing Albuquerque Center
Mon 09:25:51 PM 35.4978 -110.2003 97° East 452 520 30,900 689 Climbing Albuquerque Center
Mon 09:26:52 PM 35.4797 -110.0156 97° East 475 547 31,000 49 Climbing Albuquerque Center
Mon 09:27:54 PM 35.4617 -109.8569 98° East 488 562 31,000  Level Albuquerque Center
Mon 09:28:55 PM 35.4442 -109.6758 97° East 484 557 31,000  Level Albuquerque Center
Mon 09:29:56 PM 35.4272 -109.5200 98° East 483 556 31,000  Level Albuquerque Center
Mon 09:30:58 PM 35.4106 -109.3619 97° East 487 560 31,000  Level Albuquerque Center
Mon 09:31:59 PM 35.3911 -109.1817 97° East 483 556 31,000  Level Albuquerque Center
Mon 09:33:00 PM 35.3742 -109.0283 98° East 478 550 31,000  Level Albuquerque Center
Mon 09:34:02 PM 35.3556 -108.8486 97° East 478 550 31,000  Level Albuquerque Center
Mon 09:35:03 PM 35.3406 -108.6933 97° East 481 554 31,000  Level Albuquerque Center
Mon 09:36:04 PM 35.3147 -108.5158 100° East 477 549 31,000  Level Albuquerque Center
Mon 09:37:05 PM 35.2967 -108.3592 98° East 482 555 31,000  Level Albuquerque Center
Mon 09:38:07 PM 35.2778 -108.2042 98° East 483 556 31,000  Level Albuquerque Center
Mon 09:39:08 PM 35.2558 -108.0222 98° East 485 558 31,000  Level Albuquerque Center
Mon 09:40:09 PM 35.2356 -107.8653 99° East 487 560 31,000  Level Albuquerque Center
Mon 09:41:10 PM 35.2111 -107.6856 99° East 484 557 31,000  Level Albuquerque Center
Mon 09:42:12 PM 35.1925 -107.5289 98° East 486 559 31,000  Level Albuquerque Center
Mon 09:43:13 PM 35.1706 -107.3756 100° East 476 548 31,000  Level Albuquerque Center
Mon 09:44:14 PM 35.1506 -107.2181 99° East 470 541 31,000  Level Albuquerque Center
Mon 09:45:15 PM 35.1308 -107.0494 98° East 475 547 31,000  Level Albuquerque Center
Mon 09:46:17 PM 35.1100 -106.8986 100° East 472 543 31,000  Level Albuquerque Center
Mon 09:47:18 PM 35.0856 -106.7256 100° East 463 533 31,000  Level Albuquerque Center
Mon 09:48:19 PM 35.0644 -106.5728 100° East 472 543 31,000  Level Albuquerque Center
Mon 09:49:20 PM 35.0422 -106.4097 99° East 481 554 31,000  Level Albuquerque Center
Mon 09:50:22 PM 35.0206 -106.2508 99° East 478 550 31,000  Level Albuquerque Center
Mon 09:51:23 PM 34.9978 -106.0925 100° East 475 547 31,000  Level Albuquerque Center
Mon 09:52:24 PM 34.9758 -105.9342 100° East 475 547 31,000  Level Albuquerque Center
Mon 09:53:26 PM 34.9508 -105.7622 100° East 472 543 31,000  Level Albuquerque Center
Mon 09:54:27 PM 34.9272 -105.6039 100° East 472 543 31,000  Level Albuquerque Center
Mon 09:55:28 PM 34.9044 -105.4472 100° East 468 539 31,000  Level Albuquerque Center
Mon 09:56:30 PM 34.8825 -105.2897 100° East 469 540 31,000  Level Albuquerque Center
Mon 09:57:31 PM 34.8561 -105.1064 100° East 468 539 31,000  Level Albuquerque Center
Mon 09:58:32 PM 34.8319 -104.9489 101° East 470 541 31,000  Level Albuquerque Center
Mon 09:59:34 PM 34.8086 -104.7917 100° East 470 541 31,000  Level Albuquerque Center
Mon 10:00:35 PM 34.7844 -104.6347 101° East 470 541 31,000  Level Albuquerque Center
Mon 10:01:36 PM 34.7617 -104.4803 100° East 467 537 31,000  Level Albuquerque Center
Mon 10:02:38 PM 34.7386 -104.3250 100° East 466 536 31,000  Level Albuquerque Center
Mon 10:03:39 PM 34.7150 -104.1700 100° East 467 537 31,000  Level Albuquerque Center
Mon 10:04:40 PM 34.6900 -104.0142 101° East 468 539 31,000  Level Albuquerque Center
Mon 10:05:42 PM 34.6656 -103.8597 101° East 466 536 31,000  Level Albuquerque Center
Mon 10:06:43 PM 34.6408 -103.7047 101° East 466 536 31,000  Level Albuquerque Center
Mon 10:07:44 PM 34.6128 -103.5256 101° East 462 532 31,000  Level Albuquerque Center
Mon 10:08:45 PM 34.5864 -103.3719 102° East 463 533 31,000 878 Level Albuquerque Center
Mon 10:09:47 PM 34.5600 -103.2169 102° East 465 535 32,800 1,659 Climbing Albuquerque Center
Mon 10:10:48 PM 34.5353 -103.0603 101° East 468 539 34,400 1,475 Climbing Albuquerque Center
Mon 10:11:49 PM 34.5072 -102.9003 102° East 477 549 35,800 1,512 Climbing Albuquerque Center
Mon 10:12:51 PM 34.4864 -102.7378 99° East 484 557 37,500 1,512 Climbing Albuquerque Center
Mon 10:13:52 PM 34.4700 -102.5725 97° East 493 567 38,900 1,082 Climbing Albuquerque Center
Mon 10:14:53 PM 34.4528 -102.4100 97° East 491 565 39,700 738 Climbing Albuquerque Center
Mon 10:15:54 PM 34.4358 -102.2467 97° East 490 564 40,400 634 Climbing Albuquerque Center
Mon 10:16:56 PM 34.4183 -102.0794 97° East 498 573 41,000 293 Climbing Albuquerque Center
Mon 10:17:57 PM 34.3994 -101.9125 98° East 503 579 41,000  Level Albuquerque Center
Mon 10:18:58 PM 34.3781 -101.7150 97° East 500 575 41,000  Level Albuquerque Center
Mon 10:19:43 PM 34.3642 -101.5997 98° East 490 564 41,000  Level Fort Worth Center
Mon 10:20:43 PM 34.3483 -101.4456 97° East 476 548 41,000  Level Fort Worth Center
Mon 10:21:43 PM 34.3297 -101.3014 99° East 467 537 41,000  Level Fort Worth Center
Mon 10:22:43 PM 34.3100 -101.1269 98° East 467 537 41,000  Level Fort Worth Center
Mon 10:23:43 PM 34.2933 -100.9831 98° East 467 537 41,000  Level Fort Worth Center
Mon 10:24:43 PM 34.2672 -100.8036 100° East 476 548 41,000  Level Fort Worth Center
Mon 10:25:43 PM 34.2336 -100.6489 105° East 481 554 41,000  Level Fort Worth Center
Mon 10:26:43 PM 34.2000 -100.4994 105° East 470 541 41,000  Level Fort Worth Center
Mon 10:27:43 PM 34.1697 -100.3706 106° East 457 526 41,000 -650 Level Fort Worth Center
Mon 10:28:43 PM 34.1356 -100.2239 106° East 457 526 39,700 -850 Descending Fort Worth Center
Mon 10:29:43 PM 34.0992 -100.0669 106° East 464 534 39,300 -300 Descending Fort Worth Center
Mon 10:30:43 PM 34.0606 -99.9156 107° East 469 540 39,100 -500 Descending Fort Worth Center
Mon 10:31:43 PM 34.0239 -99.7617 106° East 474 545 38,300 -750 Descending Fort Worth Center
Mon 10:32:43 PM 33.9892 -99.6103 105° East 474 545 37,600 -750 Descending Fort Worth Center
Mon 10:33:43 PM 33.9519 -99.4592 107° East 474 545 36,800 -800 Descending Fort Worth Center
Mon 10:34:43 PM 33.9108 -99.2981 107° East 480 552 36,000 -1,550 Descending Fort Worth Center
Mon 10:35:43 PM 33.8733 -99.1472 107° East 480 552 33,700 -2,500 Descending Fort Worth Center
Mon 10:36:43 PM 33.8336 -98.9889 107° East 480 552 31,000 -2,550 Descending Fort Worth Center
Mon 10:37:43 PM 33.7939 -98.8206 106° East 480 552 28,600 -2,300 Descending Fort Worth Center
Mon 10:38:43 PM 33.7558 -98.6750 107° East 467 537 26,400 -1,900 Descending Fort Worth Center
Mon 10:39:43 PM 33.7217 -98.5472 108° East 455 524 24,800 -1,450 Descending Fort Worth Center
Mon 10:40:43 PM 33.6872 -98.4044 106° East 443 510 23,500 -1,950 Descending Fort Worth Center
Mon 10:41:43 PM 33.6467 -98.2719 110° East 429 494 20,900 -2,550 Descending Fort Worth Center
Mon 10:42:43 PM 33.5953 -98.1492 117° Southeast 418 481 18,400 -2,600 Descending Fort Worth Center
Mon 10:43:43 PM 33.5375 -98.0142 117° Southeast 411 473 15,700 -2,300 Descending Fort Worth Center
Mon 10:44:43 PM 33.4961 -97.9117 116° Southeast 401 461 13,800 -2,050 Descending Fort Worth Center
Mon 10:45:43 PM 33.4444 -97.7894 117° Southeast 378 435 11,600 -1,350 Descending Fort Worth Center
Mon 10:46:43 PM 33.4050 -97.6947 116° Southeast 354 407 11,100 -700 Descending Fort Worth Center
Mon 10:47:43 PM 33.3531 -97.6075 125° Southeast 305 351 10,200 -1,250 Descending Fort Worth Center
Mon 10:48:43 PM 33.3008 -97.5353 131° Southeast 280 322 8,600 -1,500 Descending Fort Worth Center
Mon 10:49:43 PM 33.2822 -97.4383 103° East 275 316 7,200 -1,300 Descending Fort Worth Center
Mon 10:50:43 PM 33.2697 -97.3439 99° East 296 341 6,000 -1,050 Descending Fort Worth Center
Mon 10:51:43 PM 33.2569 -97.2569 100° East 282 325 5,100 -600 Descending Fort Worth Center
Mon 10:52:43 PM 33.2089 -97.2025 137° Southeast 237 273 4,800 -750 Descending Fort Worth Center
Mon 10:53:43 PM 33.1589 -97.1578 143° Southeast 230 265 3,600 -850 Descending Fort Worth Center
Mon 10:54:43 PM 33.1169 -97.1208 144° Southeast 224 258 3,100 -387 Descending Fort Worth Center
Mon 10:55:16 PM 33.0833 -97.1000 153° Southeast 176 203 3,000  Descending Dallas / Fort Worth TRACON
Mon 10:56:10 PM 33.0667 -97.0667 121° Southeast 143 165 3,100 -56 Climbing Dallas / Fort Worth TRACON
Mon 10:57:04 PM 33.0333 -97.0500 157° South 141 162 2,900 -222 Descending Dallas / Fort Worth TRACON

Login

Don't have an account? Register now (free) for customized features, flight alerts, and more!